createdAt,value
2018-07-12T00:00:21.661Z,17.30
2018-07-12T00:02:49.011Z,17.30
2018-07-12T00:05:16.317Z,17.20
2018-07-12T00:07:43.656Z,17.20
2018-07-12T00:10:10.948Z,17.20
2018-07-12T00:12:38.291Z,17.10
2018-07-12T00:17:33.180Z,17.10
2018-07-12T00:20:00.479Z,17.10
2018-07-12T00:22:27.788Z,17.10
2018-07-12T00:24:55.137Z,17.10
2018-07-12T00:27:22.603Z,17.10
2018-07-12T00:29:50.108Z,17.10
2018-07-12T00:32:17.536Z,17.20
2018-07-12T00:37:12.804Z,17.20
2018-07-12T00:39:40.299Z,17.20
2018-07-12T00:42:07.740Z,17.20
2018-07-12T00:44:35.187Z,17.20
2018-07-12T00:47:02.636Z,17.20
2018-07-12T00:49:30.084Z,17.10
2018-07-12T00:51:57.477Z,17.10
2018-07-12T00:54:24.934Z,17.10
2018-07-12T00:56:52.256Z,17.10
2018-07-12T00:59:20.009Z,17.10
2018-07-12T01:01:47.441Z,17.10
2018-07-12T01:04:14.912Z,17.00
2018-07-12T01:09:10.055Z,17.00
2018-07-12T01:11:37.475Z,17.00
2018-07-12T01:14:04.899Z,17.00
2018-07-12T01:16:32.359Z,17.00
2018-07-12T01:18:59.699Z,17.00
2018-07-12T01:21:26.987Z,17.00
2018-07-12T01:23:54.440Z,16.90
2018-07-12T01:26:21.815Z,16.90
2018-07-12T01:28:49.420Z,16.80
2018-07-12T01:31:16.891Z,16.80
2018-07-12T01:33:44.305Z,16.80
2018-07-12T01:36:11.775Z,16.80
2018-07-12T01:38:39.216Z,16.80
2018-07-12T01:41:06.671Z,16.80
2018-07-12T01:43:34.126Z,16.80
2018-07-12T01:46:01.594Z,16.80
2018-07-12T01:48:29.132Z,16.80
2018-07-12T01:50:56.583Z,16.80
2018-07-12T01:53:24.122Z,16.80
2018-07-12T01:55:51.608Z,16.80
2018-07-12T02:00:47.051Z,16.70
2018-07-12T02:03:14.383Z,16.70
2018-07-12T02:05:41.804Z,16.60
2018-07-12T02:08:09.097Z,16.50
2018-07-12T02:10:36.420Z,16.50
2018-07-12T02:13:03.710Z,16.50
2018-07-12T02:15:31.115Z,16.50
2018-07-12T02:17:58.409Z,16.50
2018-07-12T02:20:25.808Z,16.50
2018-07-12T02:25:21.014Z,16.40
2018-07-12T02:27:48.298Z,16.40
2018-07-12T02:30:15.636Z,16.40
2018-07-12T02:32:42.928Z,16.30
2018-07-12T02:35:10.265Z,16.30
2018-07-12T02:37:37.560Z,16.30
2018-07-12T02:40:04.881Z,16.30
2018-07-12T02:42:32.171Z,16.30
2018-07-12T02:44:59.486Z,16.30
2018-07-12T02:47:26.775Z,16.30
2018-07-12T02:49:54.094Z,16.30
2018-07-12T02:52:21.386Z,16.30
2018-07-12T02:54:48.707Z,16.30
2018-07-12T02:57:16.001Z,16.30
2018-07-12T02:59:43.368Z,16.30
2018-07-12T03:02:10.643Z,16.30
2018-07-12T03:04:37.959Z,16.30
2018-07-12T03:07:05.253Z,16.30
2018-07-12T03:09:32.567Z,16.30
2018-07-12T03:11:59.862Z,16.30
2018-07-12T03:14:27.186Z,16.30
2018-07-12T03:16:54.502Z,16.30
2018-07-12T03:19:21.832Z,16.20
2018-07-12T03:21:49.144Z,16.20
2018-07-12T03:24:16.480Z,16.20
2018-07-12T03:26:43.785Z,16.20
2018-07-12T03:29:11.122Z,16.20
2018-07-12T03:31:38.418Z,16.20
2018-07-12T03:34:05.743Z,16.20
2018-07-12T03:36:33.048Z,16.20
2018-07-12T03:39:00.385Z,16.20
2018-07-12T03:41:27.716Z,16.20
2018-07-12T03:43:55.011Z,16.10
2018-07-12T03:46:22.408Z,16.10
2018-07-12T03:48:49.704Z,16.10
2018-07-12T03:51:17.035Z,16.10
2018-07-12T03:53:44.340Z,16.10
2018-07-12T03:56:11.656Z,16.10
2018-07-12T04:01:06.553Z,16.10
2018-07-12T04:03:33.876Z,16.10
2018-07-12T04:06:01.208Z,16.10
2018-07-12T04:08:28.532Z,16.10
2018-07-12T04:10:55.906Z,16.10
2018-07-12T04:13:23.178Z,16.10
2018-07-12T04:15:50.496Z,16.10
2018-07-12T04:18:17.796Z,16.10
2018-07-12T04:20:45.117Z,16.10
2018-07-12T04:28:07.561Z,16.20
2018-07-12T04:30:34.881Z,16.20
2018-07-12T04:33:02.175Z,16.20
2018-07-12T04:35:29.515Z,16.20
2018-07-12T04:37:56.824Z,16.10
2018-07-12T04:40:24.200Z,16.10
2018-07-12T04:42:51.505Z,16.10
2018-07-12T04:45:18.824Z,16.10
2018-07-12T04:47:46.115Z,16.10
2018-07-12T04:50:13.505Z,16.10
2018-07-12T04:52:40.787Z,16.10
2018-07-12T04:55:08.096Z,16.10
2018-07-12T04:57:35.394Z,16.10
2018-07-12T05:00:02.765Z,16.20
2018-07-12T05:02:30.022Z,16.20
2018-07-12T05:04:57.344Z,16.30
2018-07-12T05:07:24.633Z,16.30
2018-07-12T05:09:51.945Z,16.30
2018-07-12T05:12:19.241Z,16.40
2018-07-12T05:14:46.646Z,16.40
2018-07-12T05:17:14.000Z,16.40
2018-07-12T05:19:41.296Z,16.30
2018-07-12T05:22:08.615Z,16.30
2018-07-12T05:24:35.918Z,16.30
2018-07-12T05:27:03.236Z,16.30
2018-07-12T05:29:30.528Z,16.30
2018-07-12T05:31:58.469Z,16.40
2018-07-12T05:34:25.834Z,16.50
2018-07-12T05:36:56.436Z,16.50
2018-07-12T05:39:24.878Z,16.50
2018-07-12T05:41:53.202Z,16.40
2018-07-12T05:44:21.592Z,16.50
2018-07-12T05:46:50.372Z,16.50
2018-07-12T05:49:18.808Z,16.50
2018-07-12T05:51:47.516Z,16.50
2018-07-12T05:54:17.031Z,16.50
2018-07-12T05:59:14.788Z,16.50
2018-07-12T06:01:54.391Z,16.40
2018-07-12T06:04:22.753Z,16.40
2018-07-12T06:06:51.140Z,16.40
2018-07-12T06:09:19.498Z,16.50
2018-07-12T06:14:15.928Z,16.60
2018-07-12T06:16:44.283Z,16.70
2018-07-12T06:19:12.663Z,16.70
2018-07-12T06:21:41.017Z,16.70
2018-07-12T06:24:09.352Z,16.70
2018-07-12T06:29:05.804Z,16.90
2018-07-12T06:31:34.199Z,16.90
2018-07-12T06:34:02.544Z,16.90
2018-07-12T06:36:30.900Z,17.00
2018-07-12T06:38:59.244Z,17.00
2018-07-12T06:41:27.612Z,17.10
2018-07-12T06:46:24.049Z,17.30
2018-07-12T06:48:52.383Z,17.30
2018-07-12T06:51:20.736Z,17.40
2018-07-12T06:53:49.061Z,17.50
2018-07-12T06:56:17.468Z,17.60
2018-07-12T06:58:45.822Z,17.80
2018-07-12T07:01:14.229Z,17.80
2018-07-12T07:03:42.620Z,17.80
2018-07-12T07:06:10.965Z,17.90
2018-07-12T07:08:39.330Z,17.90
2018-07-12T07:11:07.772Z,17.90
2018-07-12T07:16:04.984Z,18.00
2018-07-12T07:18:33.315Z,18.00
2018-07-12T07:21:01.671Z,18.10
2018-07-12T07:23:30.023Z,18.20
2018-07-12T07:25:58.359Z,18.20
2018-07-12T07:28:26.719Z,18.40
2018-07-12T07:30:55.051Z,18.50
2018-07-12T07:33:23.433Z,18.60
2018-07-12T07:35:51.776Z,18.60
2018-07-12T07:38:20.187Z,18.70
2018-07-12T07:40:48.541Z,18.80
2018-07-12T07:43:17.011Z,18.90
2018-07-12T07:45:45.276Z,19.00
2018-07-12T07:48:13.647Z,19.20
2018-07-12T07:50:42.011Z,19.30
2018-07-12T07:53:10.393Z,19.30
2018-07-12T07:55:38.754Z,19.40
2018-07-12T07:58:07.127Z,19.50
2018-07-12T08:00:35.462Z,19.60
2018-07-12T08:03:03.876Z,19.70
2018-07-12T08:05:32.215Z,19.80
2018-07-12T08:08:00.582Z,19.90
2018-07-12T08:10:28.917Z,19.90
2018-07-12T08:12:57.296Z,20.00
2018-07-12T08:15:25.624Z,20.20
2018-07-12T08:17:53.976Z,20.30
2018-07-12T08:20:23.012Z,20.40
2018-07-12T08:22:51.779Z,20.50
2018-07-12T08:25:20.104Z,20.50
2018-07-12T08:27:59.851Z,20.60
2018-07-12T08:30:28.188Z,20.70
2018-07-12T08:32:56.545Z,20.80
2018-07-12T08:35:24.883Z,20.90
2018-07-12T08:37:53.255Z,21.10
2018-07-12T08:42:49.758Z,21.30
2018-07-12T08:45:18.159Z,21.40
2018-07-12T08:47:46.528Z,21.50
2018-07-12T08:50:14.897Z,21.60
2018-07-12T08:52:43.292Z,21.70
2018-07-12T08:55:11.696Z,21.80
2018-07-12T09:00:08.208Z,22.00
2018-07-12T09:02:36.584Z,22.10
2018-07-12T09:05:04.912Z,22.10
2018-07-12T09:12:29.428Z,22.60
2018-07-12T09:17:25.918Z,22.70
2018-07-12T09:19:54.259Z,22.90
2018-07-12T09:22:22.595Z,23.00
2018-07-12T09:24:50.952Z,23.10
2018-07-12T09:27:19.284Z,23.20
2018-07-12T09:29:47.676Z,23.30
2018-07-12T09:32:16.048Z,23.30
2018-07-12T09:34:44.475Z,23.30
2018-07-12T09:37:12.781Z,23.40
2018-07-12T09:39:41.169Z,23.40
2018-07-12T09:42:09.484Z,23.40
2018-07-12T09:49:34.027Z,23.80
2018-07-12T09:52:02.437Z,24.10
2018-07-12T09:54:30.872Z,24.00
2018-07-12T09:59:32.748Z,23.70
2018-07-12T10:04:34.636Z,24.00
2018-07-12T10:08:08.936Z,24.30
2018-07-12T10:10:42.597Z,24.30
2018-07-12T10:13:16.259Z,24.20
2018-07-12T10:18:18.157Z,24.60
2018-07-12T10:20:46.524Z,24.90
2018-07-12T10:28:11.067Z,25.40
2018-07-12T10:30:39.464Z,25.40
2018-07-12T10:33:07.840Z,25.50
2018-07-12T10:35:36.200Z,25.70
2018-07-12T10:38:04.583Z,25.90
2018-07-12T10:40:32.944Z,25.80
2018-07-12T10:45:29.607Z,25.50
2018-07-12T10:47:57.952Z,25.70
2018-07-12T10:50:26.656Z,25.90
2018-07-12T10:52:55.106Z,25.90
2018-07-12T10:55:23.724Z,25.80
2018-07-12T11:00:20.179Z,25.60
2018-07-12T11:07:44.672Z,25.40
2018-07-12T11:10:13.041Z,25.20
2018-07-12T11:12:41.384Z,25.00
2018-07-12T11:15:09.815Z,24.80
2018-07-12T11:17:38.141Z,25.00
2018-07-12T11:20:06.533Z,25.20
2018-07-12T11:22:34.996Z,25.50
2018-07-12T11:25:03.352Z,25.80
2018-07-12T11:27:31.692Z,26.20
2018-07-12T11:30:00.234Z,26.60
2018-07-12T11:32:28.611Z,26.80
2018-07-12T11:37:26.175Z,27.10
2018-07-12T11:42:22.684Z,27.40
2018-07-12T11:44:51.106Z,27.70
2018-07-12T11:47:20.131Z,27.70
2018-07-12T11:49:48.493Z,27.40
2018-07-12T11:52:16.958Z,27.50
2018-07-12T11:54:45.344Z,27.70
2018-07-12T11:57:13.727Z,27.80
2018-07-12T12:02:10.816Z,28.20
2018-07-12T12:04:39.183Z,28.10
2018-07-12T12:07:07.706Z,28.20
2018-07-12T12:09:36.044Z,28.40
2018-07-12T12:14:32.548Z,28.80
2018-07-12T12:17:00.955Z,29.00
2018-07-12T12:19:29.460Z,29.10
2018-07-12T12:21:58.267Z,29.30
2018-07-12T12:24:26.600Z,29.50
2018-07-12T12:26:55.024Z,29.70
2018-07-12T12:29:23.360Z,29.90
2018-07-12T12:31:51.720Z,30.10
2018-07-12T12:34:20.044Z,30.10
2018-07-12T12:41:44.539Z,30.40
2018-07-12T12:44:12.890Z,30.30
2018-07-12T12:46:41.229Z,30.10
2018-07-12T12:51:37.635Z,29.40
2018-07-12T12:54:05.979Z,29.10
2018-07-12T12:56:34.320Z,28.80
2018-07-12T12:59:02.660Z,28.50
2018-07-12T13:01:31.022Z,28.30
2018-07-12T13:03:59.335Z,28.10
2018-07-12T13:06:27.667Z,28.10
2018-07-12T13:08:55.984Z,28.00
2018-07-12T13:11:24.346Z,28.10
2018-07-12T13:13:52.663Z,28.10
2018-07-12T13:16:21.028Z,28.10
2018-07-12T13:18:49.419Z,28.00
2018-07-12T13:21:17.736Z,28.00
2018-07-12T13:26:14.156Z,28.00
2018-07-12T13:28:42.520Z,27.90
2018-07-12T13:31:10.837Z,27.80
2018-07-12T13:33:39.173Z,27.70
2018-07-12T13:36:07.499Z,27.50
2018-07-12T13:38:35.879Z,27.40
2018-07-12T13:53:24.571Z,28.00
2018-07-12T13:55:52.936Z,28.00
2018-07-12T13:58:21.307Z,28.00
2018-07-12T14:00:49.630Z,27.90
2018-07-12T14:03:17.997Z,27.90
2018-07-12T14:05:46.326Z,27.80
2018-07-12T14:13:10.795Z,27.80
2018-07-12T14:15:39.125Z,27.70
2018-07-12T14:23:03.655Z,27.10
2018-07-12T14:28:00.056Z,27.50
2018-07-12T14:30:28.392Z,28.00
2018-07-12T14:32:56.755Z,28.20
2018-07-12T14:37:53.232Z,28.80
2018-07-12T14:40:21.564Z,28.70
2018-07-12T14:42:49.923Z,28.50
2018-07-12T14:45:18.265Z,28.30
2018-07-12T14:47:46.615Z,28.10
2018-07-12T14:50:14.951Z,27.90
2018-07-12T14:52:43.338Z,27.70
2018-07-12T14:55:11.716Z,27.60
2018-07-12T14:57:40.046Z,27.60
2018-07-12T15:02:36.569Z,27.60
2018-07-12T15:05:04.927Z,27.50
2018-07-12T15:07:33.262Z,27.40
2018-07-12T15:10:01.644Z,27.30
2018-07-12T15:12:30.004Z,27.30
2018-07-12T15:14:58.359Z,27.20
2018-07-12T15:17:26.707Z,27.20
2018-07-12T15:19:55.051Z,27.00
2018-07-12T15:24:51.506Z,26.90
2018-07-12T15:32:16.028Z,26.90
2018-07-12T15:37:12.467Z,26.90
2018-07-12T15:39:40.826Z,26.90
2018-07-12T15:42:09.169Z,26.80
2018-07-12T15:44:37.535Z,26.80
2018-07-12T15:54:30.132Z,26.20
2018-07-12T15:56:58.477Z,26.10
2018-07-12T15:59:26.827Z,26.10
2018-07-12T16:01:55.164Z,26.10
2018-07-12T16:04:23.544Z,26.10
2018-07-12T16:06:51.883Z,26.00
2018-07-12T16:09:20.260Z,26.00
2018-07-12T16:11:48.600Z,25.90
2018-07-12T16:14:17.016Z,26.00
2018-07-12T16:16:45.370Z,26.00
2018-07-12T16:19:13.746Z,26.00
2018-07-12T16:21:42.128Z,26.10
2018-07-12T16:24:10.505Z,26.10
2018-07-12T16:26:38.849Z,26.30
2018-07-12T16:31:35.288Z,26.60
2018-07-12T16:34:03.749Z,26.70
2018-07-12T16:36:32.078Z,26.60
2018-07-12T16:39:00.431Z,26.40
2018-07-12T16:41:28.759Z,26.40
2018-07-12T16:43:57.123Z,26.40
2018-07-12T16:46:25.507Z,26.50
2018-07-12T16:48:53.882Z,26.30
2018-07-12T16:51:22.219Z,26.20
2018-07-12T16:53:50.595Z,26.20
2018-07-12T16:56:18.992Z,26.10
2018-07-12T17:01:15.404Z,26.10
2018-07-12T17:03:43.745Z,26.20
2018-07-12T17:06:12.193Z,26.10
2018-07-12T17:08:40.596Z,26.20
2018-07-12T17:11:08.952Z,26.20
2018-07-12T17:13:37.292Z,26.20
2018-07-12T17:16:05.673Z,26.20
2018-07-12T17:18:34.000Z,26.10
2018-07-12T17:23:30.417Z,26.20
2018-07-12T17:25:58.778Z,26.20
2018-07-12T17:28:27.140Z,26.10
2018-07-12T17:30:55.561Z,26.00
2018-07-12T17:33:23.961Z,25.90
2018-07-12T17:35:52.318Z,25.80
2018-07-12T17:38:20.651Z,25.70
2018-07-12T17:40:49.268Z,25.60
2018-07-12T17:43:17.687Z,25.50
2018-07-12T17:45:46.028Z,25.40
2018-07-12T17:48:14.349Z,25.40
2018-07-12T17:50:42.704Z,25.40
2018-07-12T17:53:11.032Z,25.40
2018-07-12T17:55:39.427Z,25.50
2018-07-12T17:58:07.781Z,25.50
2018-07-12T18:03:04.435Z,25.90
2018-07-12T18:08:00.892Z,26.50
2018-07-12T18:10:29.276Z,26.60
2018-07-12T18:12:57.631Z,26.50
2018-07-12T18:15:26.040Z,26.30
2018-07-12T18:17:54.423Z,26.20
2018-07-12T18:20:22.776Z,25.80
2018-07-12T18:22:51.096Z,25.60
2018-07-12T18:25:19.459Z,25.40
2018-07-12T18:27:47.817Z,25.30
2018-07-12T18:30:16.193Z,25.20
2018-07-12T18:32:44.520Z,25.10
2018-07-12T18:35:12.892Z,25.10
2018-07-12T18:37:41.229Z,25.00
2018-07-12T18:42:37.667Z,24.80
2018-07-12T18:45:06.043Z,24.80
2018-07-12T18:47:34.399Z,24.80
2018-07-12T18:50:02.801Z,24.70
2018-07-12T18:52:31.192Z,24.70
2018-07-12T18:54:59.544Z,24.70
2018-07-12T18:57:27.912Z,24.70
2018-07-12T18:59:56.249Z,24.70
2018-07-12T19:02:24.595Z,24.60
2018-07-12T19:04:52.937Z,24.50
2018-07-12T19:07:21.303Z,24.40
2018-07-12T19:09:49.672Z,24.40
2018-07-12T19:14:46.282Z,24.30
2018-07-12T19:17:14.649Z,24.30
2018-07-12T19:19:42.996Z,24.30
2018-07-12T19:22:11.386Z,24.20
2018-07-12T19:24:39.715Z,24.10
2018-07-12T19:27:08.087Z,24.00
2018-07-12T19:29:36.432Z,23.90
2018-07-12T19:32:04.836Z,23.80
2018-07-12T19:34:33.221Z,23.80
2018-07-12T19:37:01.640Z,23.70
2018-07-12T19:41:58.114Z,23.60
2018-07-12T19:44:26.494Z,23.60
2018-07-12T19:46:54.880Z,23.60
2018-07-12T19:49:23.256Z,23.60
2018-07-12T19:51:55.333Z,23.60
2018-07-12T19:54:25.825Z,23.50
2018-07-12T19:59:22.457Z,23.50
2018-07-12T20:01:50.815Z,23.50
2018-07-12T20:04:19.150Z,23.40
2018-07-12T20:06:47.560Z,23.30
2018-07-12T20:09:15.895Z,23.30
2018-07-12T20:14:12.335Z,23.20
2018-07-12T20:16:40.685Z,23.10
2018-07-12T20:19:10.121Z,23.00
2018-07-12T20:21:38.544Z,23.00
2018-07-12T20:24:07.545Z,22.90
2018-07-12T20:26:36.093Z,22.80
2018-07-12T20:29:04.613Z,22.80
2018-07-12T20:31:33.009Z,22.70
2018-07-12T20:34:01.436Z,22.60
2018-07-12T20:36:29.860Z,22.50
2018-07-12T20:38:58.222Z,22.50
2018-07-12T20:41:26.696Z,22.50
2018-07-12T20:43:55.098Z,22.40
2018-07-12T20:46:23.447Z,22.40
2018-07-12T20:48:51.924Z,22.30
2018-07-12T20:51:20.329Z,22.30
2018-07-12T20:53:48.727Z,22.30
2018-07-12T20:56:17.104Z,22.20
2018-07-12T20:58:45.472Z,22.20
2018-07-12T21:01:13.827Z,22.10
2018-07-12T21:03:42.229Z,22.10
2018-07-12T21:06:10.562Z,22.10
2018-07-12T21:13:35.500Z,21.90
2018-07-12T21:16:03.895Z,21.80
2018-07-12T21:21:00.363Z,21.80
2018-07-12T21:23:28.801Z,21.80
2018-07-12T21:25:57.243Z,21.80
2018-07-12T21:28:25.673Z,21.80
2018-07-12T21:30:54.066Z,21.80
2018-07-12T21:33:22.488Z,21.70
2018-07-12T21:35:50.826Z,21.70
2018-07-12T21:38:19.206Z,21.70
2018-07-12T21:40:47.593Z,21.70
2018-07-12T21:43:15.968Z,21.70
2018-07-12T21:45:44.337Z,21.60
2018-07-12T21:48:12.718Z,21.60
2018-07-12T21:50:41.101Z,21.50
2018-07-12T21:53:09.477Z,21.40
2018-07-12T21:55:37.852Z,21.30
2018-07-12T21:58:06.207Z,21.30
2018-07-12T22:00:34.540Z,21.20
2018-07-12T22:03:02.922Z,21.20
2018-07-12T22:05:31.235Z,21.20
2018-07-12T22:08:18.428Z,21.10
2018-07-12T22:10:47.812Z,21.10
2018-07-12T22:15:44.999Z,21.00
2018-07-12T22:18:13.395Z,20.90
2018-07-12T22:20:41.745Z,20.80
2018-07-12T22:25:38.273Z,20.70
2018-07-12T22:28:06.808Z,20.50
2018-07-12T22:30:35.234Z,20.40
2018-07-12T22:33:04.007Z,20.30
2018-07-12T22:35:32.383Z,20.20
2018-07-12T22:38:01.720Z,20.10
2018-07-12T22:40:30.347Z,20.00
2018-07-12T22:42:58.720Z,19.90
2018-07-12T22:45:27.081Z,19.80
2018-07-12T22:47:55.605Z,19.80
2018-07-12T22:50:24.020Z,19.70
2018-07-12T22:52:52.488Z,19.50
2018-07-12T22:55:20.905Z,19.50
2018-07-12T22:57:49.269Z,19.40
2018-07-12T23:00:17.619Z,19.30
2018-07-12T23:02:45.961Z,19.30
2018-07-12T23:05:14.369Z,19.20
2018-07-12T23:07:42.977Z,19.10
2018-07-12T23:10:11.677Z,19.10
2018-07-12T23:15:08.460Z,19.10
2018-07-12T23:17:36.995Z,19.10
2018-07-12T23:20:05.795Z,19.10
2018-07-12T23:22:34.361Z,19.10
2018-07-12T23:25:03.000Z,19.10
2018-07-12T23:30:00.114Z,19.00
2018-07-12T23:32:28.591Z,19.00
2018-07-12T23:34:58.131Z,18.90
2018-07-12T23:37:26.639Z,18.90
2018-07-12T23:39:55.178Z,18.90
2018-07-12T23:42:23.943Z,18.90
2018-07-12T23:44:52.364Z,18.90
2018-07-12T23:47:20.877Z,18.90
2018-07-12T23:49:49.539Z,18.90
2018-07-12T23:52:18.016Z,18.80
2018-07-12T23:54:46.606Z,18.80
2018-07-12T23:57:15.179Z,18.80
